KMGC/MGC METAR and TAF weather

Enter ICAO airport designator
Station Type Date Time Source
KMGC METAR 2022/06/28 16:15 UTC NOAA

KMGC 281615Z AUTO 17003KT 10SM CLR 24/11 A3026 RMK AO2


Station Type Date Time Source
KMGC Decoded METAR 2022/06/28 16:15 UTC NOAA

Station name not available
Jun 28, 2022 - 12:15 PM EDT / 2022.06.28 1615 UTC
Wind: from the S (170 degrees) at 3 MPH (3 KT):0
Visibility: 10 mile(s):0
Sky conditions: clear
Temperature: 75 F (24 C)
Dew Point: 51 F (11 C)
Relative Humidity: 43%
Pressure (altimeter): 30.26 in. Hg (1024 hPa)
ob: KMGC 281615Z AUTO 17003KT 10SM CLR 24/11 A3026 RMK AO2
cycle: 16

Station Type Date Time Source
KMGC TAF UTC NOAA

Error!

Example: see airport list